Time;durP1;ratioP1;P1;durP2;ratioP2;P2;SDS_P1;SDS_P2;PMS_P1;PMS_P2;Temp;Humidity;BMP_temperature;BMP_pressure;BME280_temperature;BME280_humidity;BME280_pressure;Samples;Min_cycle;Max_cycle;Signal;HPM_P1;HPM_P2
2021/09/08 00:00:50;;;;;;;;;;;10.60;99.90;;;;;;5112223;28;19915;-70
2021/09/08 00:03:16;;;;;;;;;;;10.60;99.90;;;;;;5112134;28;20002;-72
2021/09/08 00:05:41;;;;;;;;;;;10.60;99.90;;;;;;5112036;28;19908;-70
2021/09/08 00:08:07;;;;;;;;;;;10.50;99.90;;;;;;5111948;28;19907;-70
2021/09/08 00:10:33;;;;;;;;;;;10.50;99.90;;;;;;5111993;28;20257;-70
2021/09/08 00:12:58;;;;;;;;;;;10.40;99.90;;;;;;5111761;28;19911;-70
2021/09/08 00:15:24;;;;;;;;;;;10.40;99.90;;;;;;5112071;28;19931;-69
2021/09/08 00:17:50;;;;;;;;;;;10.40;99.90;;;;;;5111689;28;19953;-70
2021/09/08 00:20:15;;;;;;;;;;;10.40;99.90;;;;;;5111977;28;20295;-70
2021/09/08 00:22:44;;;;;;;;;;;10.30;99.90;;;;;;5107328;28;20355;-70
2021/09/08 00:25:11;;;;;;;;;;;10.20;99.90;;;;;;5111827;28;19987;-69
2021/09/08 00:27:36;;;;;;;;;;;10.30;99.90;;;;;;5111324;28;19912;-70
2021/09/08 00:30:02;;;;;;;;;;;10.20;99.90;;;;;;5112073;28;19954;-70
2021/09/08 00:32:28;;;;;;;;;;;10.30;99.90;;;;;;5111829;28;19951;-70
2021/09/08 00:34:53;;;;;;;;;;;10.20;99.90;;;;;;5112044;28;19908;-70
2021/09/08 00:37:19;;;;;;;;;;;10.20;99.90;;;;;;5111324;28;19999;-72
2021/09/08 00:39:44;;;;;;;;;;;10.20;99.90;;;;;;5111703;28;19911;-70
2021/09/08 00:42:11;;;;;;;;;;;10.30;99.90;;;;;;5111529;28;19908;-69
2021/09/08 00:44:36;;;;;;;;;;;10.20;99.90;;;;;;5111724;28;19915;-69
2021/09/08 00:47:02;;;;;;;;;;;10.20;99.90;;;;;;5111210;28;19916;-70
2021/09/08 00:49:27;;;;;;;;;;;10.20;99.90;;;;;;5111741;28;19915;-70
2021/09/08 00:51:53;;;;;;;;;;;10.10;99.90;;;;;;5099024;28;20384;-69
2021/09/08 00:54:20;;;;;;;;;;;10.00;99.90;;;;;;5091243;28;19908;-69
2021/09/08 00:56:47;;;;;;;;;;;10.00;99.90;;;;;;5090680;28;19918;-69
2021/09/08 00:59:13;;;;;;;;;;;9.90;99.90;;;;;;5091205;28;19909;-69
2021/09/08 01:01:38;;;;;;;;;;;9.90;99.90;;;;;;5091108;28;20019;-70
2021/09/08 01:04:04;;;;;;;;;;;9.90;99.90;;;;;;5091124;28;20451;-70
2021/09/08 01:06:29;;;;;;;;;;;10.00;99.90;;;;;;5091080;28;19924;-69
2021/09/08 01:08:55;;;;;;;;;;;10.00;99.90;;;;;;5095092;28;20002;-69
2021/09/08 01:11:20;;;;;;;;;;;10.00;99.90;;;;;;5094681;28;19943;-70
2021/09/08 01:13:46;;;;;;;;;;;10.00;99.90;;;;;;5095048;28;20389;-71
2021/09/08 01:16:11;;;;;;;;;;;10.00;99.90;;;;;;5094737;28;19958;-69
2021/09/08 01:18:37;;;;;;;;;;;10.10;99.90;;;;;;5094957;28;19908;-70
2021/09/08 01:21:03;;;;;;;;;;;10.10;99.90;;;;;;5094616;28;19908;-70
2021/09/08 01:23:29;;;;;;;;;;;10.00;99.90;;;;;;5115023;28;20300;-69
2021/09/08 01:25:55;;;;;;;;;;;10.00;99.90;;;;;;5114940;28;19919;-70
2021/09/08 01:28:20;;;;;;;;;;;9.90;99.90;;;;;;5114891;28;19915;-70
2021/09/08 01:30:51;;;;;;;;;;;10.00;99.90;;;;;;5115014;28;19911;-69
2021/09/08 01:33:17;;;;;;;;;;;10.00;99.90;;;;;;5115044;28;19908;-69
2021/09/08 01:35:42;;;;;;;;;;;10.00;99.90;;;;;;5096702;28;20360;-73
2021/09/08 01:38:08;;;;;;;;;;;9.90;99.90;;;;;;5115034;28;19908;-69
2021/09/08 01:40:33;;;;;;;;;;;9.80;99.90;;;;;;5114798;28;19907;-69
2021/09/08 01:42:59;;;;;;;;;;;9.80;99.90;;;;;;5114773;28;19907;-70
2021/09/08 01:45:25;;;;;;;;;;;9.80;99.90;;;;;;5114696;28;20092;-70
2021/09/08 01:47:54;;;;;;;;;;;9.70;99.90;;;;;;5114303;28;19912;-69
2021/09/08 01:50:20;;;;;;;;;;;9.60;99.90;;;;;;5114649;28;20360;-69
2021/09/08 01:52:46;;;;;;;;;;;9.50;99.90;;;;;;5094457;28;19908;-70
2021/09/08 01:55:11;;;;;;;;;;;9.60;99.90;;;;;;5094174;28;19912;-70
2021/09/08 01:57:37;;;;;;;;;;;9.60;99.90;;;;;;5093877;28;19912;-72
2021/09/08 02:00:03;;;;;;;;;;;9.50;99.90;;;;;;5094188;28;19991;-70
2021/09/08 02:02:29;;;;;;;;;;;9.40;99.90;;;;;;5094055;28;19916;-71
2021/09/08 02:04:54;;;;;;;;;;;9.50;99.90;;;;;;5094176;28;20392;-70
2021/09/08 02:07:20;;;;;;;;;;;9.50;99.90;;;;;;5093581;28;19991;-70
2021/09/08 02:09:45;;;;;;;;;;;9.50;99.90;;;;;;5093895;28;19908;-70
2021/09/08 02:12:11;;;;;;;;;;;9.50;99.90;;;;;;5093912;28;19919;-70
2021/09/08 02:14:36;;;;;;;;;;;9.40;99.90;;;;;;5093992;28;19912;-70
2021/09/08 02:17:02;;;;;;;;;;;9.40;99.90;;;;;;5093430;28;19993;-70
2021/09/08 02:19:27;;;;;;;;;;;9.40;99.90;;;;;;5093771;28;19908;-72
2021/09/08 02:21:53;;;;;;;;;;;9.30;99.90;;;;;;5093130;28;20285;-69
2021/09/08 02:24:18;;;;;;;;;;;9.20;99.90;;;;;;5113729;28;19912;-69
2021/09/08 02:26:44;;;;;;;;;;;9.20;99.90;;;;;;5113580;28;19908;-70
2021/09/08 02:29:10;;;;;;;;;;;9.20;99.90;;;;;;5113991;28;19930;-69
2021/09/08 02:31:35;;;;;;;;;;;9.20;99.90;;;;;;5113799;28;19987;-69
2021/09/08 02:34:01;;;;;;;;;;;9.20;99.90;;;;;;5113888;28;19914;-69
2021/09/08 02:36:26;;;;;;;;;;;9.10;99.90;;;;;;5113384;28;19908;-69
2021/09/08 02:38:52;;;;;;;;;;;9.20;99.90;;;;;;5113611;28;20292;-71
2021/09/08 02:41:18;;;;;;;;;;;9.10;99.90;;;;;;5113706;28;19908;-71
2021/09/08 02:43:43;;;;;;;;;;;9.00;99.90;;;;;;5113781;28;19907;-69
2021/09/08 02:46:09;;;;;;;;;;;9.00;99.90;;;;;;5113105;28;20361;-69
2021/09/08 02:48:35;;;;;;;;;;;9.00;99.90;;;;;;5113612;28;19907;-69
2021/09/08 02:51:01;;;;;;;;;;;9.00;99.90;;;;;;5108308;28;20425;-69
2021/09/08 02:53:27;;;;;;;;;;;9.00;99.90;;;;;;5093236;28;20249;-69
2021/09/08 02:55:52;;;;;;;;;;;8.90;99.90;;;;;;5093092;28;19915;-72
2021/09/08 02:58:18;;;;;;;;;;;8.90;99.90;;;;;;5092688;28;19919;-69
2021/09/08 03:00:43;;;;;;;;;;;8.90;99.90;;;;;;5092957;28;19908;-69
2021/09/08 03:03:09;;;;;;;;;;;8.80;99.90;;;;;;5092903;28;19916;-69
2021/09/08 03:05:34;;;;;;;;;;;8.80;99.90;;;;;;5092895;28;20407;-70
2021/09/08 03:08:00;;;;;;;;;;;8.80;99.90;;;;;;5092288;28;19929;-69
2021/09/08 03:10:25;;;;;;;;;;;8.80;99.90;;;;;;5092655;28;20018;-69
2021/09/08 03:12:51;;;;;;;;;;;8.90;99.90;;;;;;5092676;28;19943;-71
2021/09/08 03:15:16;;;;;;;;;;;8.90;99.90;;;;;;5092768;28;19908;-69
2021/09/08 03:17:42;;;;;;;;;;;8.90;99.90;;;;;;5092313;28;20361;-69
2021/09/08 03:20:08;;;;;;;;;;;8.80;99.90;;;;;;5092536;28;20262;-69
2021/09/08 03:22:33;;;;;;;;;;;8.80;99.90;;;;;;5089968;28;19909;-69
2021/09/08 03:24:59;;;;;;;;;;;8.90;99.90;;;;;;5092467;28;19934;-69
2021/09/08 03:27:24;;;;;;;;;;;8.80;99.90;;;;;;5092335;28;19915;-69
2021/09/08 03:29:50;;;;;;;;;;;8.80;99.90;;;;;;5092027;28;19908;-70
2021/09/08 03:32:15;;;;;;;;;;;8.80;99.90;;;;;;5092387;28;19916;-70
2021/09/08 03:34:41;;;;;;;;;;;8.80;99.90;;;;;;5092350;28;19908;-69
2021/09/08 03:37:06;;;;;;;;;;;8.80;99.90;;;;;;5091767;28;19912;-69
2021/09/08 03:39:32;;;;;;;;;;;8.80;99.90;;;;;;5092133;28;19934;-70
2021/09/08 03:41:57;;;;;;;;;;;8.80;99.90;;;;;;5092144;28;20379;-70
2021/09/08 03:44:23;;;;;;;;;;;8.70;99.90;;;;;;5092241;28;19908;-69
2021/09/08 03:46:48;;;;;;;;;;;8.60;99.90;;;;;;5103842;28;20330;-69
2021/09/08 03:49:14;;;;;;;;;;;8.70;99.90;;;;;;5112388;28;20368;-71
2021/09/08 03:51:39;;;;;;;;;;;8.60;99.90;;;;;;5107872;28;19964;-69
2021/09/08 03:54:05;;;;;;;;;;;8.60;99.90;;;;;;5111956;28;20254;-69
2021/09/08 03:56:30;;;;;;;;;;;8.60;99.90;;;;;;5111972;28;19994;-70
2021/09/08 03:58:56;;;;;;;;;;;8.60;99.90;;;;;;5112479;28;20280;-72
2021/09/08 04:01:21;;;;;;;;;;;8.60;99.90;;;;;;5112158;28;20280;-69
2021/09/08 04:03:47;;;;;;;;;;;8.60;99.90;;;;;;5112222;28;20348;-69
2021/09/08 04:06:13;;;;;;;;;;;8.60;99.90;;;;;;5111681;28;20003;-69
2021/09/08 04:08:38;;;;;;;;;;;8.60;99.90;;;;;;5111991;28;19947;-69
2021/09/08 04:11:04;;;;;;;;;;;8.60;99.90;;;;;;5111845;28;19912;-72
2021/09/08 04:13:29;;;;;;;;;;;8.60;99.90;;;;;;5112058;28;19908;-69
2021/09/08 04:15:55;;;;;;;;;;;8.50;99.90;;;;;;5111907;28;19911;-69
2021/09/08 04:18:20;;;;;;;;;;;8.50;99.90;;;;;;5111691;28;19998;-71
2021/09/08 04:20:46;;;;;;;;;;;8.50;99.90;;;;;;5105933;28;19954;-69
2021/09/08 04:23:11;;;;;;;;;;;8.40;99.90;;;;;;5111557;28;19919;-69
2021/09/08 04:25:37;;;;;;;;;;;8.30;99.90;;;;;;5111905;28;19908;-69
2021/09/08 04:28:02;;;;;;;;;;;8.40;99.90;;;;;;5111406;28;20355;-72
2021/09/08 04:30:28;;;;;;;;;;;8.40;99.90;;;;;;5111645;28;19919;-69
2021/09/08 04:32:53;;;;;;;;;;;8.50;99.90;;;;;;5111666;28;19930;-69
2021/09/08 04:35:19;;;;;;;;;;;8.50;99.90;;;;;;5093331;28;19908;-69
2021/09/08 04:37:44;;;;;;;;;;;8.50;99.90;;;;;;5111282;28;19915;-69
2021/09/08 04:40:10;;;;;;;;;;;8.30;99.90;;;;;;5111774;28;20209;-69
2021/09/08 04:42:36;;;;;;;;;;;8.30;99.90;;;;;;5114016;28;19918;-69
2021/09/08 04:45:02;;;;;;;;;;;8.30;99.90;;;;;;5115923;28;19912;-70
2021/09/08 04:47:27;;;;;;;;;;;8.40;99.90;;;;;;5115492;28;20288;-70
2021/09/08 04:49:53;;;;;;;;;;;8.40;99.90;;;;;;5115753;28;20097;-69
2021/09/08 04:52:18;;;;;;;;;;;8.30;99.90;;;;;;5099414;28;20344;-69
2021/09/08 04:54:44;;;;;;;;;;;8.30;99.90;;;;;;5095298;28;19912;-69
2021/09/08 04:57:09;;;;;;;;;;;8.30;99.90;;;;;;5094995;28;20285;-71
2021/09/08 04:59:34;;;;;;;;;;;8.20;99.90;;;;;;5095309;28;20043;-69
2021/09/08 05:02:00;;;;;;;;;;;8.20;99.90;;;;;;5095184;28;20361;-69
2021/09/08 05:04:25;;;;;;;;;;;8.30;99.90;;;;;;5095229;28;19958;-70
2021/09/08 05:06:51;;;;;;;;;;;8.30;99.90;;;;;;5094696;28;20019;-69
2021/09/08 05:09:17;;;;;;;;;;;8.40;99.90;;;;;;5095107;28;19908;-69
2021/09/08 05:11:42;;;;;;;;;;;8.30;99.90;;;;;;5094906;28;19912;-69
2021/09/08 05:14:08;;;;;;;;;;;8.30;99.90;;;;;;5095092;28;20289;-72
2021/09/08 05:16:33;;;;;;;;;;;8.40;99.90;;;;;;5094624;28;20273;-69
2021/09/08 05:18:59;;;;;;;;;;;8.40;99.90;;;;;;5095020;28;19908;-69
2021/09/08 05:21:24;;;;;;;;;;;8.40;99.90;;;;;;5092270;28;19914;-69
2021/09/08 05:23:50;;;;;;;;;;;8.40;99.90;;;;;;5092844;28;19915;-69
2021/09/08 05:26:16;;;;;;;;;;;8.60;99.90;;;;;;5094528;28;19919;-71
2021/09/08 05:28:41;;;;;;;;;;;8.70;99.90;;;;;;5094909;28;19908;-69
2021/09/08 05:31:07;;;;;;;;;;;8.70;99.90;;;;;;5094646;28;19919;-70
2021/09/08 05:33:32;;;;;;;;;;;8.80;99.90;;;;;;5094697;28;19916;-72
2021/09/08 05:35:58;;;;;;;;;;;8.80;99.90;;;;;;5094515;28;20448;-69
2021/09/08 05:38:24;;;;;;;;;;;8.80;99.90;;;;;;5094570;28;20377;-69
2021/09/08 05:40:49;;;;;;;;;;;9.00;99.90;;;;;;5094690;28;20307;-69
2021/09/08 05:43:15;;;;;;;;;;;9.00;99.90;;;;;;5094455;28;20042;-69
2021/09/08 05:45:40;;;;;;;;;;;9.00;99.90;;;;;;5095845;28;19909;-71
2021/09/08 05:48:06;;;;;;;;;;;9.10;99.90;;;;;;5114486;28;20006;-69
2021/09/08 05:50:31;;;;;;;;;;;9.10;99.90;;;;;;5115803;28;19923;-69
2021/09/08 05:52:57;;;;;;;;;;;9.10;99.90;;;;;;5112708;28;19951;-69
2021/09/08 05:55:22;;;;;;;;;;;9.10;99.90;;;;;;5114540;28;19915;-70
2021/09/08 05:57:48;;;;;;;;;;;9.20;99.90;;;;;;5114188;28;19908;-69
2021/09/08 06:00:14;;;;;;;;;;;9.40;99.90;;;;;;5115371;28;19908;-69
2021/09/08 06:02:39;;;;;;;;;;;9.60;99.90;;;;;;5115774;28;19919;-70
2021/09/08 06:05:06;;;;;;;;;;;9.80;99.90;;;;;;5114841;28;20272;-69
2021/09/08 06:07:31;;;;;;;;;;;9.80;99.90;;;;;;5114206;28;19915;-69
2021/09/08 06:09:57;;;;;;;;;;;9.90;99.90;;;;;;5114580;28;19908;-70
2021/09/08 06:12:23;;;;;;;;;;;10.10;99.90;;;;;;5114338;28;20334;-69
2021/09/08 06:14:48;;;;;;;;;;;10.00;99.90;;;;;;5114615;28;19907;-69
2021/09/08 06:17:13;;;;;;;;;;;10.20;99.90;;;;;;5114004;28;20413;-70
2021/09/08 06:19:39;;;;;;;;;;;10.30;99.90;;;;;;5114199;28;19912;-70
2021/09/08 06:22:04;;;;;;;;;;;10.40;99.90;;;;;;5112513;28;19962;-69
2021/09/08 06:24:30;;;;;;;;;;;10.50;99.90;;;;;;5114439;28;19908;-69
2021/09/08 06:26:55;;;;;;;;;;;10.60;99.90;;;;;;5113966;28;19966;-69
2021/09/08 06:29:21;;;;;;;;;;;10.70;99.90;;;;;;5114234;28;19912;-69
2021/09/08 06:31:46;;;;;;;;;;;10.80;99.90;;;;;;5114172;28;19919;-69
2021/09/08 06:34:12;;;;;;;;;;;10.90;99.90;;;;;;5113296;28;19908;-69
2021/09/08 06:36:37;;;;;;;;;;;10.90;99.90;;;;;;5113611;28;19908;-72
2021/09/08 06:39:03;;;;;;;;;;;11.10;99.90;;;;;;5114091;28;20381;-69
2021/09/08 06:41:29;;;;;;;;;;;11.20;99.90;;;;;;5113840;28;19918;-69
2021/09/08 06:43:54;;;;;;;;;;;11.30;99.90;;;;;;5113930;28;20368;-70
2021/09/08 06:46:20;;;;;;;;;;;11.40;99.90;;;;;;5113420;28;19938;-71
2021/09/08 06:48:46;;;;;;;;;;;11.60;99.90;;;;;;5114014;28;20341;-69
2021/09/08 06:51:11;;;;;;;;;;;11.70;99.90;;;;;;5113513;28;20007;-69
2021/09/08 06:53:37;;;;;;;;;;;11.80;99.90;;;;;;5111913;28;19934;-69
2021/09/08 06:56:03;;;;;;;;;;;12.00;99.90;;;;;;5107248;28;20295;-70
2021/09/08 06:58:28;;;;;;;;;;;12.10;99.90;;;;;;5092965;28;19953;-70
2021/09/08 07:00:54;;;;;;;;;;;12.30;99.90;;;;;;5104717;28;20416;-69
2021/09/08 07:03:19;;;;;;;;;;;12.40;99.90;;;;;;5110190;28;20484;-69
2021/09/08 07:05:45;;;;;;;;;;;12.50;99.90;;;;;;5112641;28;19980;-69
2021/09/08 07:08:14;;;;;;;;;;;12.70;99.90;;;;;;5112938;28;19994;-70
2021/09/08 07:10:39;;;;;;;;;;;12.80;99.90;;;;;;5113236;28;19918;-69
2021/09/08 07:13:05;;;;;;;;;;;13.10;99.90;;;;;;5113123;28;20007;-69
2021/09/08 07:15:30;;;;;;;;;;;13.40;99.90;;;;;;5113169;28;19951;-72
2021/09/08 07:17:56;;;;;;;;;;;13.60;99.90;;;;;;5112509;28;19907;-69
2021/09/08 07:20:23;;;;;;;;;;;13.80;99.90;;;;;;5113134;28;19907;-69
2021/09/08 07:22:48;;;;;;;;;;;13.80;99.90;;;;;;5094410;28;20002;-69
2021/09/08 07:25:14;;;;;;;;;;;14.20;99.90;;;;;;5112806;28;19950;-69
2021/09/08 07:27:40;;;;;;;;;;;14.30;99.90;;;;;;5100561;28;19915;-70
2021/09/08 07:30:06;;;;;;;;;;;14.50;99.90;;;;;;5112797;28;20312;-69
2021/09/08 07:32:31;;;;;;;;;;;14.70;99.90;;;;;;5112408;28;19952;-70
2021/09/08 07:34:58;;;;;;;;;;;16.30;99.90;;;;;;5112789;28;19914;-72
2021/09/08 07:37:24;;;;;;;;;;;17.90;99.90;;;;;;5112401;28;19915;-70
2021/09/08 07:39:50;;;;;;;;;;;19.10;99.90;;;;;;5112810;28;20322;-70
2021/09/08 07:42:16;;;;;;;;;;;19.90;99.90;;;;;;5112526;28;19912;-70
2021/09/08 07:44:43;;;;;;;;;;;20.60;99.90;;;;;;5113238;28;19998;-70
2021/09/08 07:47:08;;;;;;;;;;;21.00;99.90;;;;;;5111843;28;19922;-70
2021/09/08 07:49:34;;;;;;;;;;;21.30;99.90;;;;;;5112343;28;20002;-70
2021/09/08 07:51:59;;;;;;;;;;;21.70;99.90;;;;;;5108655;28;19912;-72
2021/09/08 07:54:27;;;;;;;;;;;22.20;99.90;;;;;;5090956;28;20214;-70
2021/09/08 07:56:53;;;;;;;;;;;22.60;99.90;;;;;;5091571;28;20331;-70
2021/09/08 07:59:18;;;;;;;;;;;22.60;99.90;;;;;;5091814;28;19912;-70
2021/09/08 08:01:44;;;;;;;;;;;22.60;99.90;;;;;;5090187;28;20303;-71
2021/09/08 08:04:10;;;;;;;;;;;22.80;99.90;;;;;;5091702;28;19912;-70
2021/09/08 08:06:37;;;;;;;;;;;23.00;99.90;;;;;;5091467;28;20186;-70
2021/09/08 08:09:03;;;;;;;;;;;23.40;99.90;;;;;;5091652;28;19915;-71
2021/09/08 08:11:28;;;;;;;;;;;23.50;99.80;;;;;;5091640;28;19912;-71
2021/09/08 08:13:54;;;;;;;;;;;23.20;99.90;;;;;;5091771;28;19908;-71
2021/09/08 08:16:19;;;;;;;;;;;23.50;99.40;;;;;;5090944;28;20404;-71
2021/09/08 08:18:45;;;;;;;;;;;23.60;98.00;;;;;;5090533;28;19943;-70
2021/09/08 08:21:10;;;;;;;;;;;23.40;97.30;;;;;;5091370;28;19966;-71
2021/09/08 08:23:36;;;;;;;;;;;23.90;99.20;;;;;;5089361;28;19919;-71
2021/09/08 08:26:01;;;;;;;;;;;24.00;97.90;;;;;;5089185;28;20389;-70
2021/09/08 08:28:27;;;;;;;;;;;24.20;99.10;;;;;;5091110;28;19921;-71
2021/09/08 08:30:53;;;;;;;;;;;24.90;97.80;;;;;;5091046;28;19912;-73
2021/09/08 08:33:18;;;;;;;;;;;25.50;95.30;;;;;;5091618;28;20003;-71
2021/09/08 08:35:44;;;;;;;;;;;25.70;95.50;;;;;;5091613;28;19912;-71
2021/09/08 08:38:09;;;;;;;;;;;25.30;95.30;;;;;;5091037;28;20456;-71
2021/09/08 08:40:35;;;;;;;;;;;26.00;94.30;;;;;;5091365;28;19913;-71
2021/09/08 08:43:00;;;;;;;;;;;26.30;94.80;;;;;;5091433;28;20274;-71
2021/09/08 08:45:27;;;;;;;;;;;26.10;94.00;;;;;;5091691;28;20315;-71
2021/09/08 08:47:52;;;;;;;;;;;26.10;93.90;;;;;;5111430;28;19911;-71
2021/09/08 08:50:18;;;;;;;;;;;26.40;93.00;;;;;;5111606;28;20020;-71
2021/09/08 08:52:45;;;;;;;;;;;25.70;93.50;;;;;;5109786;28;19914;-71
2021/09/08 08:55:11;;;;;;;;;;;25.50;94.90;;;;;;5111604;28;19955;-71
2021/09/08 08:57:37;;;;;;;;;;;26.50;91.80;;;;;;5111086;28;19951;-71
2021/09/08 09:00:03;;;;;;;;;;;26.70;92.90;;;;;;5111318;28;19908;-71
2021/09/08 09:02:30;;;;;;;;;;;27.10;93.60;;;;;;5111597;28;19907;-71
2021/09/08 09:04:57;;;;;;;;;;;27.60;92.50;;;;;;5111701;28;19912;-71
2021/09/08 09:07:32;;;;;;;;;;;28.10;90.00;;;;;;5111225;28;20353;-71
2021/09/08 09:09:59;;;;;;;;;;;26.90;91.30;;;;;;5111684;28;19908;-71
2021/09/08 09:12:25;;;;;;;;;;;28.00;90.50;;;;;;5111013;28;19962;-71
2021/09/08 09:14:51;;;;;;;;;;;28.40;90.20;;;;;;5111594;28;19908;-71
2021/09/08 09:17:18;;;;;;;;;;;28.80;85.60;;;;;;5111351;28;19908;-71
2021/09/08 09:19:47;;;;;;;;;;;28.40;85.50;;;;;;5111484;28;19949;-73
2021/09/08 09:22:15;;;;;;;;;;;28.40;90.00;;;;;;5098548;28;20035;-71
2021/09/08 09:24:41;;;;;;;;;;;28.70;88.90;;;;;;5104229;28;19908;-73
2021/09/08 09:27:10;;;;;;;;;;;28.70;84.10;;;;;;5107604;28;20302;-71
2021/09/08 09:29:35;;;;;;;;;;;28.50;90.00;;;;;;5115103;28;19908;-71
2021/09/08 09:32:04;;;;;;;;;;;29.70;88.00;;;;;;5115906;28;19934;-71
2021/09/08 09:34:30;;;;;;;;;;;29.60;84.10;;;;;;5115619;28;19907;-71
2021/09/08 09:36:57;;;;;;;;;;;29.70;84.40;;;;;;5115419;28;20402;-71
2021/09/08 09:39:27;;;;;;;;;;;30.00;84.10;;;;;;5115339;28;20396;-71
2021/09/08 09:41:52;;;;;;;;;;;29.10;81.80;;;;;;5115478;28;19918;-72
2021/09/08 09:44:18;;;;;;;;;;;30.10;85.60;;;;;;5115069;28;19908;-71
2021/09/08 09:46:45;;;;;;;;;;;29.80;85.50;;;;;;5114587;28;19965;-71
2021/09/08 09:49:14;;;;;;;;;;;29.70;84.60;;;;;;5114846;28;19912;-72
2021/09/08 09:51:40;;;;;;;;;;;30.40;84.80;;;;;;5110923;28;19998;-71
2021/09/08 09:54:06;;;;;;;;;;;29.90;80.00;;;;;;5106038;28;20006;-71
2021/09/08 09:56:32;;;;;;;;;;;29.70;83.30;;;;;;5114495;28;20003;-71
2021/09/08 09:58:58;;;;;;;;;;;30.40;78.50;;;;;;5114644;28;19915;-71
2021/09/08 10:01:24;;;;;;;;;;;29.80;83.70;;;;;;5103549;28;20304;-71
2021/09/08 10:03:49;;;;;;;;;;;31.50;79.80;;;;;;5114594;28;19908;-71
2021/09/08 10:06:15;;;;;;;;;;;30.90;78.40;;;;;;5104871;28;19908;-72
2021/09/08 10:08:42;;;;;;;;;;;31.60;79.40;;;;;;5100871;28;20373;-71
2021/09/08 10:11:09;;;;;;;;;;;31.20;81.20;;;;;;5106994;28;19912;-71
2021/09/08 10:13:38;;;;;;;;;;;32.10;76.50;;;;;;5114364;28;19953;-73
2021/09/08 10:16:04;;;;;;;;;;;31.20;79.60;;;;;;5114206;28;19915;-71
2021/09/08 10:18:33;;;;;;;;;;;31.50;79.50;;;;;;5104201;28;19908;-72
2021/09/08 10:21:07;;;;;;;;;;;32.30;80.30;;;;;;5114163;28;19915;-71
2021/09/08 10:23:34;;;;;;;;;;;31.30;78.00;;;;;;5099973;28;19972;-71
2021/09/08 10:26:08;;;;;;;;;;;31.10;74.50;;;;;;5109760;28;19962;-73
2021/09/08 10:28:34;;;;;;;;;;;31.90;77.40;;;;;;5113709;28;19966;-72
2021/09/08 10:31:00;;;;;;;;;;;32.90;75.40;;;;;;5113937;28;19912;-72
2021/09/08 10:33:27;;;;;;;;;;;31.50;75.20;;;;;;5113984;28;19912;-71
2021/09/08 10:35:52;;;;;;;;;;;31.90;73.20;;;;;;5095244;28;19908;-72
2021/09/08 10:38:19;;;;;;;;;;;33.30;72.50;;;;;;5113455;28;19915;-71
2021/09/08 10:40:46;;;;;;;;;;;32.40;73.10;;;;;;5112526;28;19915;-71
2021/09/08 10:43:12;;;;;;;;;;;32.30;75.50;;;;;;5113595;28;19986;-71
2021/09/08 10:45:48;;;;;;;;;;;33.10;73.60;;;;;;5113560;28;19942;-72
2021/09/08 10:48:32;;;;;;;;;;;32.70;71.40;;;;;;5113069;28;19919;-71
2021/09/08 10:50:58;;;;;;;;;;;31.30;72.20;;;;;;5113479;28;20357;-73
2021/09/08 10:53:27;;;;;;;;;;;33.60;74.00;;;;;;5109396;28;19915;-71
2021/09/08 10:55:53;;;;;;;;;;;34.00;68.30;;;;;;5113312;28;20399;-71
2021/09/08 10:58:19;;;;;;;;;;;33.70;71.50;;;;;;5113171;28;19915;-71
2021/09/08 11:00:46;;;;;;;;;;;34.40;69.50;;;;;;5113255;28;20041;-71
2021/09/08 11:03:14;;;;;;;;;;;33.90;67.30;;;;;;5113341;28;19960;-71
2021/09/08 11:05:46;;;;;;;;;;;33.90;68.50;;;;;;5113346;28;19960;-71
2021/09/08 11:08:19;;;;;;;;;;;33.60;66.30;;;;;;5112635;28;20011;-73
2021/09/08 11:10:44;;;;;;;;;;;34.30;67.30;;;;;;5113159;28;19911;-72
2021/09/08 11:13:10;;;;;;;;;;;33.80;67.40;;;;;;5113286;28;19908;-72
2021/09/08 11:15:39;;;;;;;;;;;34.50;66.60;;;;;;5113128;28;20568;-72
2021/09/08 11:18:10;;;;;;;;;;;33.80;64.80;;;;;;5112631;28;19915;-71
2021/09/08 11:20:36;;;;;;;;;;;34.10;64.20;;;;;;5113257;28;20381;-71
2021/09/08 11:23:03;;;;;;;;;;;34.50;66.00;;;;;;5092681;28;19914;-71
2021/09/08 11:25:29;;;;;;;;;;;35.50;68.60;;;;;;5112666;28;20322;-71
2021/09/08 11:27:55;;;;;;;;;;;35.50;65.10;;;;;;5102103;28;19961;-72
2021/09/08 11:30:20;;;;;;;;;;;35.80;61.40;;;;;;5112648;28;19911;-72
2021/09/08 11:32:52;;;;;;;;;;;35.90;60.90;;;;;;5112757;28;19920;-72
2021/09/08 11:35:32;;;;;;;;;;;34.20;63.30;;;;;;5112671;28;19908;-72
2021/09/08 11:37:58;;;;;;;;;;;35.70;61.30;;;;;;5112124;28;19915;-72
2021/09/08 11:40:23;;;;;;;;;;;35.60;63.10;;;;;;5112363;28;19938;-72
2021/09/08 11:42:49;;;;;;;;;;;33.30;64.60;;;;;;5112491;28;19947;-73
2021/09/08 11:45:25;;;;;;;;;;;33.70;64.00;;;;;;5112676;28;19908;-72
2021/09/08 11:47:50;;;;;;;;;;;34.50;65.90;;;;;;5091675;28;19944;-72
2021/09/08 11:50:16;;;;;;;;;;;35.10;64.10;;;;;;5091674;28;19912;-72
2021/09/08 11:52:42;;;;;;;;;;;34.50;61.40;;;;;;5079255;28;19908;-73
2021/09/08 11:55:22;;;;;;;;;;;34.80;61.90;;;;;;5071560;28;20403;-73
2021/09/08 11:57:47;;;;;;;;;;;34.20;62.40;;;;;;5071143;28;20380;-72
2021/09/08 12:00:13;;;;;;;;;;;32.50;68.60;;;;;;5068741;28;19909;-72
2021/09/08 12:02:38;;;;;;;;;;;33.90;62.70;;;;;;5069856;28;19913;-72
2021/09/08 12:05:04;;;;;;;;;;;31.90;63.40;;;;;;5071525;28;19931;-73
2021/09/08 12:07:30;;;;;;;;;;;28.40;71.70;;;;;;5070856;28;20281;-72
2021/09/08 12:09:55;;;;;;;;;;;26.40;80.70;;;;;;5071424;28;20396;-72
2021/09/08 12:12:21;;;;;;;;;;;25.80;85.60;;;;;;5071278;28;19912;-72
2021/09/08 12:14:48;;;;;;;;;;;25.00;84.50;;;;;;5053856;28;19908;-72
2021/09/08 12:17:22;;;;;;;;;;;24.50;86.80;;;;;;5071107;28;20320;-72
2021/09/08 12:19:54;;;;;;;;;;;24.80;87.30;;;;;;5071569;28;20246;-72
2021/09/08 12:22:25;;;;;;;;;;;24.60;89.10;;;;;;5067657;28;19918;-73
2021/09/08 12:24:58;;;;;;;;;;;24.50;88.00;;;;;;5050806;28;19983;-72
2021/09/08 12:27:25;;;;;;;;;;;24.20;87.60;;;;;;5069334;28;19909;-71
2021/09/08 12:29:51;;;;;;;;;;;24.10;87.90;;;;;;5071076;28;19915;-72
2021/09/08 12:32:17;;;;;;;;;;;24.20;86.70;;;;;;5071031;28;19912;-71
2021/09/08 12:34:44;;;;;;;;;;;24.50;91.00;;;;;;5071039;28;19916;-72
2021/09/08 12:37:10;;;;;;;;;;;24.20;90.40;;;;;;5070849;28;20292;-72
2021/09/08 12:39:43;;;;;;;;;;;24.10;90.00;;;;;;5071109;28;20301;-72
2021/09/08 12:42:16;;;;;;;;;;;24.30;89.40;;;;;;5071403;28;19908;-72
2021/09/08 12:44:41;;;;;;;;;;;24.20;87.80;;;;;;5071236;28;19932;-72
2021/09/08 12:47:08;;;;;;;;;;;24.10;90.20;;;;;;5085062;28;20372;-72
2021/09/08 12:49:34;;;;;;;;;;;24.20;89.50;;;;;;5091163;28;19908;-72
2021/09/08 12:51:59;;;;;;;;;;;24.40;89.50;;;;;;5091128;28;19919;-72
2021/09/08 12:54:25;;;;;;;;;;;24.10;86.50;;;;;;5090999;28;20324;-72
2021/09/08 12:56:51;;;;;;;;;;;24.00;88.30;;;;;;5090693;28;19908;-72
2021/09/08 12:59:22;;;;;;;;;;;24.10;87.70;;;;;;5091155;28;19908;-72
2021/09/08 13:01:49;;;;;;;;;;;24.00;88.90;;;;;;5091005;28;19951;-72
2021/09/08 13:04:15;;;;;;;;;;;23.90;87.40;;;;;;5094775;28;19908;-72
2021/09/08 13:06:40;;;;;;;;;;;24.00;87.90;;;;;;5094852;28;19954;-71
2021/09/08 13:09:06;;;;;;;;;;;23.90;88.30;;;;;;5095098;28;19990;-72
2021/09/08 13:11:32;;;;;;;;;;;23.90;90.70;;;;;;5095036;28;19912;-72
2021/09/08 13:13:57;;;;;;;;;;;24.10;90.80;;;;;;5095016;28;19908;-72
2021/09/08 13:16:23;;;;;;;;;;;24.20;88.80;;;;;;5094589;28;19908;-72
2021/09/08 13:18:48;;;;;;;;;;;24.40;90.40;;;;;;5094917;28;19908;-71
2021/09/08 13:21:14;;;;;;;;;;;24.20;89.50;;;;;;5094820;28;20392;-72
2021/09/08 13:23:40;;;;;;;;;;;24.20;87.30;;;;;;5093712;28;19966;-73
2021/09/08 13:26:05;;;;;;;;;;;24.00;90.10;;;;;;5092841;28;20027;-72
2021/09/08 13:28:31;;;;;;;;;;;24.00;89.30;;;;;;5094415;28;19908;-72
2021/09/08 13:30:58;;;;;;;;;;;24.20;89.90;;;;;;5094263;28;19916;-72
2021/09/08 13:33:23;;;;;;;;;;;24.30;89.80;;;;;;5094783;28;19915;-72
2021/09/08 13:35:49;;;;;;;;;;;24.10;90.30;;;;;;5094631;28;19908;-72
2021/09/08 13:38:14;;;;;;;;;;;24.10;87.70;;;;;;5094050;28;19909;-72
2021/09/08 13:40:40;;;;;;;;;;;24.20;85.70;;;;;;5094418;28;19941;-72
2021/09/08 13:43:05;;;;;;;;;;;24.00;87.20;;;;;;5094317;28;20357;-72
2021/09/08 13:45:31;;;;;;;;;;;23.90;89.10;;;;;;5095392;28;19909;-72
2021/09/08 13:47:56;;;;;;;;;;;24.10;88.70;;;;;;5114312;28;19923;-72
2021/09/08 13:50:22;;;;;;;;;;;24.20;87.40;;;;;;5115014;28;19997;-72
2021/09/08 13:52:47;;;;;;;;;;;24.30;88.90;;;;;;5111639;28;20368;-72
2021/09/08 13:55:13;;;;;;;;;;;24.30;88.30;;;;;;5114328;28;20276;-72
2021/09/08 13:57:38;;;;;;;;;;;24.40;86.30;;;;;;5109351;28;19908;-72
2021/09/08 14:00:05;;;;;;;;;;;24.30;87.30;;;;;;5113642;28;19911;-71
2021/09/08 14:02:30;;;;;;;;;;;24.30;85.00;;;;;;5103594;28;19920;-72
2021/09/08 14:04:56;;;;;;;;;;;24.30;86.30;;;;;;5114368;28;19916;-72
2021/09/08 14:07:22;;;;;;;;;;;24.20;87.20;;;;;;5114066;28;19998;-72
2021/09/08 14:09:48;;;;;;;;;;;24.20;86.80;;;;;;5114195;28;19908;-72
2021/09/08 14:12:14;;;;;;;;;;;24.20;87.90;;;;;;5114189;28;19965;-72
2021/09/08 14:14:39;;;;;;;;;;;24.20;89.70;;;;;;5113804;28;20313;-72